Time;durP1;ratioP1;P1;durP2;ratioP2;P2;SDS_P1;SDS_P2;PMS_P1;PMS_P2;Temp;Humidity;BMP_temperature;BMP_pressure;BME280_temperature;BME280_humidity;BME280_pressure;Samples;Min_cycle;Max_cycle;Signal;HPM_P1;HPM_P2
2022/04/06 00:00:46;;;;;;;36.33;13.48;;;;;;;6.87;100.00;100099.91;5034756;28;20040;-71
2022/04/06 00:03:12;;;;;;;38.25;13.23;;;;;;;6.87;100.00;100097.25;5034359;28;20906;-72
2022/04/06 00:05:38;;;;;;;37.33;13.27;;;;;;;6.88;100.00;100088.47;5037848;28;20035;-72
2022/04/06 00:08:04;;;;;;;36.30;13.40;;;;;;;6.88;100.00;100083.22;5054040;28;20029;-72
2022/04/06 00:10:31;;;;;;;40.13;13.15;;;;;;;6.88;100.00;100075.31;5032366;28;20032;-72
2022/04/06 00:12:57;;;;;;;35.97;13.00;;;;;;;6.89;100.00;100081.41;5052759;28;20032;-72
2022/04/06 00:15:23;;;;;;;30.65;12.20;;;;;;;6.90;100.00;100077.84;5035169;28;20040;-71
2022/04/06 00:17:48;;;;;;;37.55;12.70;;;;;;;6.92;100.00;100078.69;5053370;28;20043;-72
2022/04/06 00:20:14;;;;;;;36.30;12.73;;;;;;;6.92;100.00;100068.16;5036329;28;20431;-72
2022/04/06 00:22:40;;;;;;;38.60;12.25;;;;;;;6.93;100.00;100075.94;5053142;28;20083;-72
2022/04/06 00:25:06;;;;;;;33.65;11.10;;;;;;;6.95;100.00;100075.03;5018356;28;20111;-72
2022/04/06 00:27:32;;;;;;;37.47;11.75;;;;;;;6.96;100.00;100069.72;5052766;28;20040;-72
2022/04/06 00:29:57;;;;;;;26.92;11.50;;;;;;;7.00;100.00;100066.03;5035261;28;20388;-72
2022/04/06 00:32:23;;;;;;;30.95;10.63;;;;;;;7.03;100.00;100065.06;5051829;28;20067;-72
2022/04/06 00:37:33;;;;;;;32.88;10.55;;;;;;;7.06;100.00;100059.63;5053362;28;20040;-72
2022/04/06 00:39:59;;;;;;;30.63;8.88;;;;;;;7.06;100.00;100063.13;5053323;28;20055;-72
2022/04/06 00:42:24;;;;;;;25.23;8.95;;;;;;;7.09;100.00;100054.25;5052052;28;20126;-72
2022/04/06 00:44:49;;;;;;;20.30;7.88;;;;;;;7.11;100.00;100056.81;5053492;28;20041;-72
2022/04/06 00:47:15;;;;;;;21.83;9.07;;;;;;;7.12;100.00;100056.75;5053045;28;20056;-72
2022/04/06 00:49:40;;;;;;;28.92;7.82;;;;;;;7.15;100.00;100047.88;5053758;28;20029;-73
2022/04/06 00:52:07;;;;;;;22.17;7.55;;;;;;;7.15;100.00;100038.16;5021536;28;20032;-71
2022/04/06 00:54:33;;;;;;;17.77;7.13;;;;;;;7.18;100.00;100047.72;5049055;28;20105;-72
2022/04/06 00:56:59;;;;;;;20.58;6.45;;;;;;;7.18;100.00;100039.81;5034401;28;20032;-72
2022/04/06 00:59:29;;;;;;;28.23;7.75;;;;;;;7.20;100.00;100040.63;5034454;28;20050;-72
2022/04/06 01:01:55;;;;;;;28.08;7.70;;;;;;;7.19;100.00;100029.22;5001473;28;20801;-72
2022/04/06 01:04:21;;;;;;;27.65;7.07;;;;;;;7.20;100.00;100030.94;5035007;28;20455;-71
2022/04/06 01:06:48;;;;;;;24.42;7.45;;;;;;;7.22;100.00;100032.63;5034482;28;20036;-72
2022/04/06 01:09:17;;;;;;;22.27;6.75;;;;;;;7.22;100.00;100027.38;5018131;28;20040;-73
2022/04/06 01:11:48;;;;;;;24.75;6.95;;;;;;;7.23;100.00;100027.31;5051482;28;20912;-72
2022/04/06 01:14:14;;;;;;;19.50;6.28;;;;;;;7.22;100.00;100017.72;5028913;28;20045;-72
2022/04/06 01:16:40;;;;;;;18.40;6.20;;;;;;;7.23;100.00;100019.41;5033927;28;20040;-71
2022/04/06 01:19:06;;;;;;;19.83;6.40;;;;;;;7.24;100.00;100018.47;5036952;28;20112;-72
2022/04/06 01:21:31;;;;;;;16.13;5.43;;;;;;;7.24;100.00;100009.75;5033172;28;21298;-72
2022/04/06 01:23:57;;;;;;;17.92;5.90;;;;;;;7.24;100.00;100007.13;5051868;28;20638;-72
2022/04/06 01:26:23;;;;;;;20.58;5.43;;;;;;;7.24;100.00;100007.94;5051232;28;20048;-71
2022/04/06 01:28:50;;;;;;;14.15;5.45;;;;;;;7.24;100.00;100005.31;5051161;28;20035;-72
2022/04/06 01:31:15;;;;;;;16.80;5.38;;;;;;;7.24;100.00;100007.94;5051351;28;20032;-72
2022/04/06 01:33:42;;;;;;;20.10;5.00;;;;;;;7.24;100.00;100004.47;5051394;28;20042;-72
2022/04/06 01:36:07;;;;;;;11.75;4.43;;;;;;;7.23;100.00;100002.78;5050779;28;20698;-71
2022/04/06 01:38:33;;;;;;;14.77;4.70;;;;;;;7.25;100.00;100006.19;5051596;28;20037;-71
2022/04/06 01:40:59;;;;;;;13.20;4.35;;;;;;;7.25;100.00;100001.75;5033927;28;20119;-72
2022/04/06 01:43:24;;;;;;;16.38;3.78;;;;;;;7.23;100.00;100002.78;5050688;28;20037;-72
2022/04/06 01:45:50;;;;;;;12.10;4.32;;;;;;;7.24;100.00;100000.06;5050606;28;20024;-72
2022/04/06 01:48:16;;;;;;;12.13;4.32;;;;;;;7.24;100.00;99993.94;5033938;28;20123;-72
2022/04/06 01:53:28;;;;;;;12.18;3.85;;;;;;;7.27;100.00;99985.91;5036199;28;20582;-72
2022/04/06 01:55:54;;;;;;;13.27;3.65;;;;;;;7.28;100.00;99993.75;5017697;28;20054;-72
2022/04/06 01:58:20;;;;;;;9.90;3.30;;;;;;;7.27;100.00;99986.78;5033505;28;20025;-71
2022/04/06 02:00:45;;;;;;;16.17;3.28;;;;;;;7.27;100.00;99985.91;5031764;28;20398;-72
2022/04/06 02:03:11;;;;;;;12.35;3.38;;;;;;;7.27;100.00;99980.63;5033487;28;20259;-71
2022/04/06 02:05:36;;;;;;;10.90;3.15;;;;;;;7.28;100.00;99990.22;5051563;28;20061;-71
2022/04/06 02:08:02;;;;;;;10.70;3.25;;;;;;;7.28;100.00;99979.69;5051185;28;20169;-72
2022/04/06 02:10:28;;;;;;;9.65;3.20;;;;;;;7.28;100.00;99982.34;5050829;28;20046;-71
2022/04/06 02:12:56;;;;;;;10.00;2.78;;;;;;;7.28;100.00;99979.69;5019717;28;20033;-70
2022/04/06 02:15:23;;;;;;;9.30;2.70;;;;;;;7.28;100.00;99977.06;5029775;28;20031;-72
2022/04/06 02:17:48;;;;;;;8.13;2.47;;;;;;;7.31;100.00;99963.78;5032889;28;20165;-72
2022/04/06 02:20:14;;;;;;;7.30;2.88;;;;;;;7.31;100.00;99969.06;5033226;28;20036;-72
2022/04/06 02:22:43;;;;;;;8.25;3.03;;;;;;;7.26;100.00;99964.00;5032878;28;20112;-72
2022/04/06 02:25:11;;;;;;;8.32;2.88;;;;;;;7.27;100.00;99970.09;5031655;28;20609;-72
2022/04/06 02:27:48;;;;;;;8.88;2.70;;;;;;;7.23;100.00;99958.84;4998152;28;20052;-72
2022/04/06 02:30:14;;;;;;;12.30;3.42;;;;;;;7.23;100.00;99960.66;5033628;28;20036;-71
2022/04/06 02:32:40;;;;;;;6.70;2.80;;;;;;;7.23;100.00;99960.66;5050713;28;20021;-72
2022/04/06 02:35:06;;;;;;;8.98;2.83;;;;;;;7.24;100.00;99954.47;5035200;28;20043;-72
2022/04/06 02:37:31;;;;;;;10.77;2.92;;;;;;;7.23;100.00;99948.31;5054511;28;20036;-72
2022/04/06 02:39:57;;;;;;;7.05;2.70;;;;;;;7.24;100.00;99942.13;5054371;28;21589;-72
2022/04/06 02:42:23;;;;;;;12.38;3.35;;;;;;;7.24;100.00;99941.28;5024430;28;20043;-72
2022/04/06 02:44:51;;;;;;;12.32;3.83;;;;;;;7.23;100.00;99945.69;5053808;28;20029;-72
2022/04/06 02:47:16;;;;;;;8.20;3.22;;;;;;;7.22;100.00;99941.34;5035688;28;21559;-71
2022/04/06 02:49:42;;;;;;;12.32;3.45;;;;;;;7.20;100.00;99941.41;5036809;28;20218;-71
2022/04/06 02:52:08;;;;;;;11.15;3.60;;;;;;;7.19;100.00;99934.44;5037199;28;20036;-71
2022/04/06 02:54:33;;;;;;;13.27;4.00;;;;;;;7.18;100.00;99932.75;5052658;28;20657;-71
2022/04/06 02:56:59;;;;;;;15.43;4.65;;;;;;;7.17;100.00;99925.78;5038896;28;20711;-71
2022/04/06 02:59:24;;;;;;;13.18;4.93;;;;;;;7.16;100.00;99926.72;5054108;28;20051;-72
2022/04/06 03:01:50;;;;;;;15.93;5.13;;;;;;;7.19;100.00;99928.31;5054003;28;20904;-72
2022/04/06 03:04:15;;;;;;;12.27;5.03;;;;;;;7.20;100.00;99930.06;5034144;28;20048;-72
2022/04/06 03:06:41;;;;;;;15.68;5.20;;;;;;;7.20;100.00;99924.78;5053054;28;20113;-72
2022/04/06 03:09:07;;;;;;;16.80;5.68;;;;;;;7.18;100.00;99924.84;5053177;28;20033;-72
2022/04/06 03:11:34;;;;;;;19.02;5.78;;;;;;;7.17;100.00;99925.78;5053342;28;20105;-70
2022/04/06 03:14:00;;;;;;;14.93;5.95;;;;;;;7.15;100.00;99927.59;5035147;28;21871;-70
2022/04/06 03:16:25;;;;;;;20.02;5.90;;;;;;;7.15;100.00;99927.59;5054650;28;20025;-70
2022/04/06 03:18:53;;;;;;;15.80;6.00;;;;;;;7.15;100.00;99922.34;5051858;28;20415;-71
2022/04/06 03:21:19;;;;;;;21.55;6.53;;;;;;;7.16;100.00;99924.06;5054432;28;20040;-71
2022/04/06 03:23:44;;;;;;;21.63;6.13;;;;;;;7.18;100.00;99923.97;5053540;28;20039;-71
2022/04/06 03:26:11;;;;;;;22.13;6.32;;;;;;;7.17;100.00;99925.78;5054058;28;20036;-71
2022/04/06 03:28:38;;;;;;;16.38;6.03;;;;;;;7.17;100.00;99923.16;5036461;28;20032;-70
2022/04/06 03:31:05;;;;;;;11.65;6.03;;;;;;;7.17;100.00;99920.50;5054626;28;20039;-71
2022/04/06 03:33:31;;;;;;;14.10;6.15;;;;;;;7.17;100.00;99915.25;5053498;28;20040;-71
2022/04/06 03:35:56;;;;;;;18.17;6.20;;;;;;;7.18;100.00;99908.19;5053765;28;20028;-71
2022/04/06 03:38:22;;;;;;;16.48;7.15;;;;;;;7.17;100.00;99912.63;5036005;28;20058;-71
2022/04/06 03:40:48;;;;;;;22.13;6.93;;;;;;;7.15;100.00;99906.53;5052619;28;20032;-71
2022/04/06 03:43:14;;;;;;;14.57;6.80;;;;;;;7.15;100.00;99900.44;5034604;28;20062;-71
2022/04/06 03:45:40;;;;;;;14.93;6.22;;;;;;;7.13;100.00;99899.66;5034359;28;20045;-72
2022/04/06 03:48:06;;;;;;;21.98;7.57;;;;;;;7.12;100.00;99896.16;5048231;28;20483;-72
2022/04/06 03:50:31;;;;;;;20.50;7.45;;;;;;;7.12;100.00;99901.44;5053382;28;20040;-71
2022/04/06 03:52:57;;;;;;;17.45;6.97;;;;;;;7.10;100.00;99898.03;5054205;28;20124;-72
2022/04/06 03:55:22;;;;;;;20.88;7.20;;;;;;;7.08;100.00;99907.75;5053673;28;20024;-71
2022/04/06 03:57:48;;;;;;;20.42;7.30;;;;;;;7.03;100.00;99902.72;5035505;28;20032;-71
2022/04/06 04:00:14;;;;;;;17.80;7.57;;;;;;;6.98;100.00;99899.41;5053658;28;20025;-71
2022/04/06 04:02:40;;;;;;;19.98;6.97;;;;;;;6.94;100.00;99897.88;5034667;28;20028;-72
2022/04/06 04:05:06;;;;;;;16.13;6.88;;;;;;;6.91;100.00;99896.22;5053193;28;20292;-71
2022/04/06 04:07:37;;;;;;;23.48;7.43;;;;;;;6.90;100.00;99898.94;5052051;28;20035;-71
2022/04/06 04:10:05;;;;;;;20.65;7.57;;;;;;;6.86;100.00;99897.38;5053150;28;20052;-71
2022/04/06 04:12:30;;;;;;;24.23;7.45;;;;;;;6.84;100.00;99886.03;5035471;28;20037;-71
2022/04/06 04:14:56;;;;;;;22.63;7.07;;;;;;;6.81;100.00;99889.66;5054409;28;20041;-71
2022/04/06 04:17:21;;;;;;;28.33;7.60;;;;;;;6.80;100.00;99880.06;5053692;28;20029;-71
2022/04/06 04:19:46;;;;;;;26.30;8.15;;;;;;;6.79;100.00;99886.25;5031868;28;20586;-71
2022/04/06 04:22:12;;;;;;;23.45;7.63;;;;;;;6.77;100.00;99891.56;5021364;28;20024;-72
2022/04/06 04:24:38;;;;;;;26.75;8.10;;;;;;;6.76;100.00;99883.78;5034131;28;20024;-72
2022/04/06 04:27:03;;;;;;;20.27;8.13;;;;;;;6.74;100.00;99875.06;5052968;28;20040;-71
2022/04/06 04:29:29;;;;;;;31.40;7.40;;;;;;;6.73;100.00;99876.00;5053125;28;20035;-72
2022/04/06 04:31:54;;;;;;;21.65;7.28;;;;;;;6.71;100.00;99875.22;5034739;28;21292;-72
2022/04/06 04:34:20;;;;;;;22.65;7.15;;;;;;;6.71;100.00;99869.97;5036096;28;20074;-72
2022/04/06 04:36:46;;;;;;;26.63;7.57;;;;;;;6.70;100.00;99858.56;5049363;28;20081;-72
2022/04/06 04:39:14;;;;;;;31.88;7.78;;;;;;;6.69;100.00;99862.13;5052681;28;20525;-72
2022/04/06 04:41:40;;;;;;;27.52;8.02;;;;;;;6.68;100.00;99872.72;5037297;28;20036;-71
2022/04/06 04:44:05;;;;;;;25.13;8.40;;;;;;;6.68;100.00;99867.47;5038372;28;20365;-72
2022/04/06 04:46:31;;;;;;;28.45;7.35;;;;;;;6.66;100.00;99868.38;5051548;28;20188;-72
2022/04/06 04:48:56;;;;;;;29.08;7.90;;;;;;;6.65;100.00;99874.56;5052631;28;20047;-72
2022/04/06 04:51:22;;;;;;;23.00;7.53;;;;;;;6.65;100.00;99865.84;5033320;28;20025;-72
2022/04/06 04:53:47;;;;;;;27.33;8.82;;;;;;;6.63;100.00;99863.28;5050417;28;20035;-71
2022/04/06 04:56:13;;;;;;;36.42;8.68;;;;;;;6.63;100.00;99862.41;5035008;28;20085;-72
2022/04/06 04:58:38;;;;;;;26.77;7.50;;;;;;;6.61;100.00;99869.53;5051919;28;20036;-72
2022/04/06 05:01:04;;;;;;;31.23;8.18;;;;;;;6.61;100.00;99853.75;5034300;28;20036;-71
2022/04/06 05:03:30;;;;;;;25.98;7.80;;;;;;;6.60;100.00;99854.66;5031998;28;20115;-71
2022/04/06 05:05:56;;;;;;;27.38;7.70;;;;;;;6.58;100.00;99856.53;5049392;28;20070;-70
2022/04/06 05:08:23;;;;;;;28.63;7.82;;;;;;;6.57;100.00;99853.03;5019948;28;20025;-70
2022/04/06 05:10:48;;;;;;;30.00;7.60;;;;;;;6.57;100.00;99847.75;5050092;28;20032;-72
2022/04/06 05:13:14;;;;;;;35.88;7.68;;;;;;;6.55;100.00;99841.72;5051652;28;20040;-72
2022/04/06 05:15:41;;;;;;;24.85;7.78;;;;;;;6.54;100.00;99837.38;5050934;28;20045;-71
2022/04/06 05:18:06;;;;;;;35.70;8.70;;;;;;;6.53;100.00;99840.91;5051653;28;20036;-72
2022/04/06 05:20:32;;;;;;;26.85;7.80;;;;;;;6.54;100.00;99842.63;5003872;28;20510;-72
2022/04/06 05:22:58;;;;;;;32.95;7.28;;;;;;;6.52;100.00;99833.97;5019176;28;20044;-71
2022/04/06 05:25:24;;;;;;;25.80;7.75;;;;;;;6.51;100.00;99832.25;5034828;28;20051;-71
2022/04/06 05:27:54;;;;;;;29.30;8.55;;;;;;;6.51;100.00;99827.00;5032553;28;20032;-71
2022/04/06 05:30:23;;;;;;;30.85;8.50;;;;;;;6.50;100.00;99826.13;5016750;28;20016;-72
2022/04/06 05:33:04;;;;;;;28.27;8.43;;;;;;;6.50;100.00;99822.66;5051878;28;20387;-71
2022/04/06 05:35:39;;;;;;;33.03;8.40;;;;;;;6.49;100.00;99824.44;5017611;28;20094;-72
2022/04/06 05:38:05;;;;;;;31.88;7.90;;;;;;;6.50;100.00;99830.56;5017329;28;20041;-71
2022/04/06 05:40:31;;;;;;;38.55;9.13;;;;;;;6.50;100.00;99833.19;5032406;28;20372;-71
2022/04/06 05:45:45;;;;;;;25.80;8.00;;;;;;;6.51;100.00;99827.00;5026312;28;20047;-71
2022/04/06 05:48:11;;;;;;;32.03;7.88;;;;;;;6.51;100.00;99832.25;5049932;28;20228;-71
2022/04/06 05:50:37;;;;;;;28.23;7.90;;;;;;;6.50;100.00;99831.38;5049987;28;20159;-70
2022/04/06 05:53:02;;;;;;;34.72;9.32;;;;;;;6.50;100.00;99836.66;5049761;28;20040;-71
2022/04/06 05:55:28;;;;;;;24.70;7.43;;;;;;;6.51;100.00;99829.63;5050827;28;20035;-71
2022/04/06 05:57:53;;;;;;;27.20;7.38;;;;;;;6.51;100.00;99827.00;5050150;28;20479;-71
2022/04/06 06:00:19;;;;;;;29.88;7.50;;;;;;;6.51;100.00;99824.38;5050319;28;20036;-71
2022/04/06 06:02:45;;;;;;;30.40;7.65;;;;;;;6.51;100.00;99827.88;5033903;28;20021;-71
2022/04/06 06:05:11;;;;;;;30.52;8.05;;;;;;;6.52;100.00;99831.34;5044262;28;20029;-71
2022/04/06 06:07:36;;;;;;;34.00;7.05;;;;;;;6.52;100.00;99828.69;5051306;28;20029;-71
2022/04/06 06:10:03;;;;;;;25.73;7.22;;;;;;;6.52;100.00;99823.44;5032514;28;20038;-70
2022/04/06 06:12:30;;;;;;;24.63;6.75;;;;;;;6.52;100.00;99823.44;5049164;28;20048;-72
2022/04/06 06:14:56;;;;;;;24.05;6.53;;;;;;;6.51;100.00;99809.47;5013526;28;21862;-73
2022/04/06 06:17:21;;;;;;;29.73;6.93;;;;;;;6.52;100.00;99820.81;5049793;28;20084;-74
2022/04/06 06:19:50;;;;;;;25.42;6.22;;;;;;;6.52;100.00;99816.41;5051537;28;20044;-75
2022/04/06 06:22:15;;;;;;;24.42;5.70;;;;;;;6.52;100.00;99819.06;5030418;28;20032;-72
2022/04/06 06:24:41;;;;;;;26.77;6.75;;;;;;;6.54;100.00;99816.31;5020054;28;20050;-69
2022/04/06 06:27:07;;;;;;;25.33;5.57;;;;;;;6.54;100.00;99807.59;5015551;28;20040;-69
2022/04/06 06:29:33;;;;;;;20.63;5.38;;;;;;;6.52;100.00;99810.28;5032767;28;20033;-69
2022/04/06 06:32:06;;;;;;;32.88;6.10;;;;;;;6.53;100.00;99809.38;5020140;28;20032;-69
2022/04/06 06:34:32;;;;;;;20.20;5.55;;;;;;;6.52;100.00;99812.91;5036073;28;20104;-68
2022/04/06 06:36:58;;;;;;;21.52;5.63;;;;;;;6.53;100.00;99809.38;5018190;28;20496;-69
2022/04/06 06:39:26;;;;;;;19.85;5.68;;;;;;;6.51;100.00;99805.97;5050647;28;20029;-71
2022/04/06 06:41:52;;;;;;;21.25;4.97;;;;;;;6.51;100.00;99808.59;5027701;28;20036;-72
2022/04/06 06:44:18;;;;;;;31.63;5.57;;;;;;;6.52;100.00;99802.41;5032314;28;20089;-72
2022/04/06 06:46:43;;;;;;;22.90;5.68;;;;;;;6.52;100.00;99808.53;5031628;28;20060;-72
2022/04/06 06:49:10;;;;;;;23.95;4.75;;;;;;;6.54;100.00;99794.44;5035135;28;20041;-72
2022/04/06 06:51:35;;;;;;;27.45;5.13;;;;;;;6.54;100.00;99799.72;5033083;28;20032;-72
2022/04/06 06:54:01;;;;;;;28.60;5.13;;;;;;;6.55;100.00;99807.53;5030995;28;21489;-71
2022/04/06 06:56:29;;;;;;;25.13;5.35;;;;;;;6.55;100.00;99797.03;5032266;28;20025;-70
2022/04/06 06:58:55;;;;;;;21.75;5.22;;;;;;;6.56;100.00;99793.47;5031424;28;20728;-69
2022/04/06 07:01:20;;;;;;;18.80;5.65;;;;;;;6.57;100.00;99797.78;5016033;28;20487;-68
2022/04/06 07:03:46;;;;;;;28.83;6.07;;;;;;;6.58;100.00;99788.16;5015980;28;20040;-69
2022/04/06 07:06:12;;;;;;;26.65;5.13;;;;;;;6.60;100.00;99796.81;5031979;28;20161;-69
2022/04/06 07:08:37;;;;;;;25.13;5.00;;;;;;;6.62;100.00;99790.56;5049784;28;20032;-69
2022/04/06 07:11:04;;;;;;;21.60;4.90;;;;;;;6.63;100.00;99786.13;5049246;28;20496;-69
2022/04/06 07:13:29;;;;;;;23.38;5.20;;;;;;;6.64;100.00;99786.06;5050441;28;20097;-68
2022/04/06 07:15:55;;;;;;;29.33;5.35;;;;;;;6.66;100.00;99784.22;5049293;28;20029;-69
2022/04/06 07:18:21;;;;;;;20.02;4.80;;;;;;;6.68;100.00;99781.53;5032318;28;20438;-69
2022/04/06 07:20:47;;;;;;;22.58;4.90;;;;;;;6.68;100.00;99781.53;5049943;28;20117;-70
2022/04/06 07:23:13;;;;;;;34.67;5.78;;;;;;;6.69;100.00;99780.59;5052094;28;20036;-70
2022/04/06 07:25:40;;;;;;;20.42;4.68;;;;;;;6.71;100.00;99784.00;5034853;28;20351;-70
2022/04/06 07:28:06;;;;;;;17.95;4.60;;;;;;;6.72;100.00;99776.97;5036430;28;20094;-71
2022/04/06 07:30:32;;;;;;;19.70;5.00;;;;;;;6.73;100.00;99789.19;5035759;28;20569;-72
2022/04/06 07:32:58;;;;;;;22.98;5.35;;;;;;;6.73;100.00;99778.66;5054436;28;20044;-75
2022/04/06 07:35:24;;;;;;;25.38;5.78;;;;;;;6.73;100.00;99773.41;5035459;28;20036;-75
2022/04/06 07:37:51;;;;;;;25.95;5.80;;;;;;;6.73;100.00;99773.41;5036619;28;20064;-75
2022/04/06 07:40:19;;;;;;;23.73;5.65;;;;;;;6.75;100.00;99768.94;5038366;28;20036;-75
2022/04/06 07:42:46;;;;;;;28.23;5.13;;;;;;;6.76;100.00;99765.38;5022734;28;20024;-75
2022/04/06 07:45:14;;;;;;;31.88;5.10;;;;;;;6.77;100.00;99772.34;5021166;28;20669;-73
2022/04/06 07:47:41;;;;;;;26.48;5.53;;;;;;;6.75;100.00;99766.31;5053664;28;20048;-73
2022/04/06 07:50:09;;;;;;;24.90;5.07;;;;;;;6.74;100.00;99765.47;5034150;28;20055;-74
2022/04/06 07:52:36;;;;;;;19.00;5.43;;;;;;;6.75;100.00;99761.06;5035450;28;20122;-73
2022/04/06 07:55:05;;;;;;;28.83;5.43;;;;;;;6.75;100.00;99761.06;5053728;28;20132;-73
2022/04/06 07:57:30;;;;;;;21.88;5.30;;;;;;;6.76;100.00;99746.97;5052163;28;20066;-75
2022/04/06 07:59:56;;;;;;;25.20;5.53;;;;;;;6.81;100.00;99750.22;5052777;28;20732;-74
2022/04/06 08:02:22;;;;;;;24.92;4.90;;;;;;;6.84;100.00;99742.19;5035918;28;20036;-73
2022/04/06 08:04:48;;;;;;;23.95;4.60;;;;;;;6.87;100.00;99749.94;5053889;28;20036;-74
2022/04/06 08:07:13;;;;;;;28.92;4.70;;;;;;;6.90;100.00;99754.19;5053107;28;20040;-73
2022/04/06 08:09:39;;;;;;;17.63;3.85;;;;;;;6.91;100.00;99746.25;5022975;28;20116;-75
2022/04/06 08:12:05;;;;;;;22.85;4.35;;;;;;;6.91;100.00;99743.59;5036165;28;20052;-74
2022/04/06 08:14:31;;;;;;;22.45;4.40;;;;;;;6.92;100.00;99732.16;5038410;28;20291;-74
2022/04/06 08:16:56;;;;;;;26.13;4.45;;;;;;;6.95;100.00;99744.31;5035873;28;20119;-74
2022/04/06 08:19:23;;;;;;;14.23;3.15;;;;;;;6.99;100.00;99737.13;5053159;28;20124;-74
2022/04/06 08:21:49;;;;;;;19.45;3.95;;;;;;;7.03;100.00;99743.97;5052216;28;20118;-74
2022/04/06 08:24:15;;;;;;;21.33;4.60;;;;;;;7.05;100.00;99731.56;5018358;28;20291;-73
2022/04/06 08:26:41;;;;;;;15.90;4.03;;;;;;;7.06;100.00;99734.13;5034663;28;20029;-74
2022/04/06 08:29:06;;;;;;;19.08;4.10;;;;;;;7.11;100.00;99719.88;5034367;28;20153;-74
2022/04/06 08:31:32;;;;;;;20.48;4.53;;;;;;;7.18;100.00;99730.03;5019635;28;21403;-73
2022/04/06 08:33:57;;;;;;;16.17;3.47;;;;;;;7.26;100.00;99721.78;5052219;28;20533;-74
2022/04/06 08:36:23;;;;;;;17.95;3.88;;;;;;;7.35;100.00;99720.44;5034251;28;20032;-74
2022/04/06 08:38:49;;;;;;;23.05;4.28;;;;;;;7.44;100.00;99717.38;5019164;28;20037;-74
2022/04/06 08:41:16;;;;;;;15.98;4.18;;;;;;;7.55;100.00;99715.97;5033526;28;21434;-74
2022/04/06 08:43:42;;;;;;;22.15;4.10;;;;;;;7.67;100.00;99711.88;5017979;28;20025;-74
2022/04/06 08:46:11;;;;;;;16.58;4.45;;;;;;;7.77;100.00;99714.84;5014594;28;20086;-74
2022/04/06 08:48:37;;;;;;;16.25;4.18;;;;;;;7.90;100.00;99712.44;5038887;28;20045;-74
2022/04/06 08:51:08;;;;;;;18.92;4.07;;;;;;;7.96;100.00;99717.41;5053820;28;20045;-74
2022/04/06 08:53:38;;;;;;;21.20;3.92;;;;;;;8.04;100.00;99719.59;5034783;28;20087;-74
2022/04/06 08:56:03;;;;;;;14.95;3.83;;;;;;;8.14;100.00;99697.09;5053082;28;20047;-74
2022/04/06 08:58:29;;;;;;;17.08;3.95;;;;;;;8.22;100.00;99713.38;5034070;28;20024;-74
2022/04/06 09:00:54;;;;;;;17.10;4.07;;;;;;;8.27;100.00;99695.50;5034029;28;20067;-76
2022/04/06 09:03:22;;;;;;;17.90;4.07;;;;;;;8.33;100.00;99690.84;5052441;28;20052;-75
2022/04/06 09:05:59;;;;;;;20.48;4.65;;;;;;;8.36;100.00;99694.16;5034898;28;20657;-75
2022/04/06 09:08:35;;;;;;;17.90;4.38;;;;;;;8.44;100.00;99691.09;5031239;28;20253;-74
2022/04/06 09:11:13;;;;;;;18.17;3.97;;;;;;;8.50;100.00;99701.31;5018635;28;20020;-74
2022/04/06 09:13:44;;;;;;;17.20;4.25;;;;;;;8.60;100.00;99698.22;5051384;28;20032;-78
2022/04/06 09:16:11;;;;;;;19.33;4.07;;;;;;;8.67;100.00;99699.56;5052769;28;20021;-75
2022/04/06 09:18:45;;;;;;;22.88;4.22;;;;;;;8.70;100.00;99691.47;5052847;28;20511;-75
2022/04/06 09:21:15;;;;;;;18.50;4.32;;;;;;;8.74;100.00;99692.16;5031787;28;20490;-74
2022/04/06 09:23:49;;;;;;;20.52;4.00;;;;;;;8.68;100.00;99688.06;5033207;28;20037;-74
2022/04/06 09:26:19;;;;;;;20.90;4.43;;;;;;;8.66;100.00;99705.78;5050766;28;20234;-74
2022/04/06 09:28:47;;;;;;;20.85;4.18;;;;;;;8.65;100.00;99694.38;5050227;28;20033;-74
2022/04/06 09:31:15;;;;;;;26.35;5.03;;;;;;;8.67;100.00;99694.28;5053025;28;20056;-74
2022/04/06 09:33:41;;;;;;;23.02;4.82;;;;;;;8.67;100.00;99702.22;5051637;28;20119;-74
2022/04/06 09:36:18;;;;;;;20.75;4.53;;;;;;;8.66;100.00;99698.72;5051600;28;20119;-74
2022/04/06 09:38:47;;;;;;;21.90;4.30;;;;;;;8.65;100.00;99701.44;5051033;28;20029;-74
2022/04/06 09:41:15;;;;;;;24.50;4.55;;;;;;;8.62;100.00;99698.97;5051760;28;20033;-75
2022/04/06 09:43:45;;;;;;;15.85;4.20;;;;;;;8.60;100.00;99692.94;5052331;28;20037;-74
2022/04/06 09:49:08;;;;;;;;;;;;;;;8.50;100.00;99703.94;5050209;28;20052;-75
2022/04/06 09:51:37;;;;;;;20.67;4.13;;;;;;;8.51;100.00;99692.50;5050800;28;19927;-75
2022/04/06 09:54:04;;;;;;;26.92;5.18;;;;;;;8.51;100.00;99696.91;5031767;28;20020;-74
2022/04/06 09:56:31;;;;;;;20.15;4.35;;;;;;;8.52;100.00;99688.94;5032586;28;20075;-75
2022/04/06 09:58:57;;;;;;;21.30;4.95;;;;;;;8.55;100.00;99685.25;5051661;28;20107;-75
2022/04/06 10:01:26;;;;;;;17.25;4.65;;;;;;;8.54;100.00;99687.06;5051484;28;20506;-75
2022/04/06 10:03:57;;;;;;;23.45;4.55;;;;;;;8.55;100.00;99685.25;5034153;28;20675;-74
2022/04/06 10:06:22;;;;;;;18.35;4.05;;;;;;;8.53;100.00;99677.44;5033273;28;20047;-75
2022/04/06 10:08:49;;;;;;;26.00;5.03;;;;;;;8.54;100.00;99670.38;5052891;28;20036;-75
2022/04/06 10:11:17;;;;;;;21.02;5.05;;;;;;;8.54;100.00;99660.69;5051960;28;20067;-76
2022/04/06 10:13:43;;;;;;;18.08;3.92;;;;;;;8.55;100.00;99667.66;5035114;28;20126;-75
2022/04/06 10:16:12;;;;;;;26.98;4.97;;;;;;;8.59;100.00;99667.47;5052335;28;20112;-75
2022/04/06 10:18:38;;;;;;;19.90;4.28;;;;;;;8.62;100.00;99664.66;5052976;28;20036;-74
2022/04/06 10:21:10;;;;;;;20.80;4.43;;;;;;;8.60;100.00;99666.56;5030447;28;20131;-75
2022/04/06 10:23:38;;;;;;;25.77;5.32;;;;;;;8.56;100.00;99656.16;5050066;28;20025;-75
2022/04/06 10:26:13;;;;;;;21.05;5.63;;;;;;;8.59;100.00;99649.00;5051942;28;20135;-75
2022/04/06 10:28:44;;;;;;;19.52;4.40;;;;;;;8.60;100.00;99654.19;5033932;28;20041;-75
2022/04/06 10:31:17;;;;;;;22.25;4.72;;;;;;;8.65;100.00;99648.66;5035636;28;20257;-74
2022/04/06 10:33:43;;;;;;;24.90;5.13;;;;;;;8.70;100.00;99646.63;5052301;28;20111;-75
2022/04/06 10:36:18;;;;;;;22.38;4.90;;;;;;;8.69;100.00;99643.13;5034405;28;20513;-75
2022/04/06 10:39:06;;;;;;;29.05;5.35;;;;;;;8.70;100.00;99649.25;5052082;28;20049;-75
2022/04/06 10:41:32;;;;;;;29.15;5.60;;;;;;;8.74;100.00;99645.50;5031668;28;20081;-74
2022/04/06 10:43:58;;;;;;;25.50;5.32;;;;;;;8.80;100.00;99647.81;5037936;28;20052;-74
2022/04/06 10:46:40;;;;;;;24.48;4.82;;;;;;;8.92;100.00;99645.38;5051079;28;20120;-74
2022/04/06 10:49:06;;;;;;;21.88;5.18;;;;;;;9.02;100.00;99641.28;5034091;28;20566;-74
2022/04/06 10:51:35;;;;;;;24.77;5.18;;;;;;;9.16;100.00;99642.25;5049431;28;21468;-73
2022/04/06 10:54:13;;;;;;;17.08;4.57;;;;;;;9.27;100.00;99637.22;5051455;28;20657;-73
2022/04/06 10:56:51;;;;;;;22.02;5.72;;;;;;;9.39;100.00;99643.53;5054193;28;20036;-74
2022/04/06 10:59:17;;;;;;;22.23;4.60;;;;;;;9.49;100.00;99642.03;5037641;28;20124;-73
2022/04/06 11:01:46;;;;;;;19.02;5.15;;;;;;;9.57;100.00;99628.38;5036536;28;20423;-73
2022/04/06 11:04:24;;;;;;;24.10;4.82;;;;;;;9.66;100.00;99624.34;5054894;28;20123;-73
2022/04/06 11:07:00;;;;;;;21.40;5.20;;;;;;;9.72;100.00;99616.03;5054964;28;20039;-74
2022/04/06 11:12:13;;;;;;;19.65;4.93;;;;;;;9.97;100.00;99619.78;5054383;28;20824;-73
2022/04/06 11:14:40;;;;;;;20.60;4.43;;;;;;;10.05;100.00;99621.94;5036903;28;20028;-75
2022/04/06 11:17:32;;;;;;;23.50;4.70;;;;;;;10.18;100.00;99614.94;5036296;28;20093;-75
2022/04/06 11:20:02;;;;;;;21.70;5.00;;;;;;;10.35;100.00;99609.53;5054517;28;20059;-74
2022/04/06 11:22:28;;;;;;;19.77;4.50;;;;;;;10.46;100.00;99609.69;5024892;28;20433;-74
2022/04/06 11:24:55;;;;;;;21.95;5.32;;;;;;;10.54;100.00;99590.69;5036712;28;20048;-75
2022/04/06 11:27:32;;;;;;;21.55;4.75;;;;;;;10.62;100.00;99590.19;5034508;28;20044;-74
2022/04/06 11:30:02;;;;;;;17.02;5.22;;;;;;;10.71;100.00;99593.06;5024308;28;20062;-75
2022/04/06 11:32:28;;;;;;;16.00;4.47;;;;;;;10.71;100.00;99593.06;5036582;28;20083;-74
2022/04/06 11:35:04;;;;;;;17.17;3.80;;;;;;;10.73;100.00;99592.97;5052592;28;20112;-74
2022/04/06 11:37:30;;;;;;;22.85;5.65;;;;;;;10.76;100.00;99581.31;5037944;28;20078;-75